Time,TemperatureF,DewpointF,PressureIn,WindDirection,WindDirectionDegrees,WindSpeedMPH,WindSpeedGustMPH,Humidity,HourlyPrecipIn,Conditions,Clouds,dailyrainin,SolarRadiationWatts/m^2,SoftwareType,DateUTC
2013-08-06 00:08:00,70.6,46.0,30.12,NNE,25,12.0,16.0,41,0.00,,,0.00,0,weatherlink.com 1.10,2013-08-06 06:08:00,
2013-08-06 00:23:00,70.8,46.0,30.12,NNE,32,16.0,16.0,41,0.00,,,0.00,0,weatherlink.com 1.10,2013-08-06 06:23:00,
2013-08-06 00:38:00,70.2,46.0,30.12,NNE,13,11.0,18.0,42,0.00,,,0.00,0,weatherlink.com 1.10,2013-08-06 06:38:00,
2013-08-06 00:53:00,67.0,45.0,30.12,North,5,11.0,11.0,46,0.00,,,0.00,0,weatherlink.com 1.10,2013-08-06 06:53:00,
2013-08-06 01:08:00,65.4,46.0,30.12,NNE,19,9.0,12.0,49,0.00,,,0.00,0,weatherlink.com 1.10,2013-08-06 07:08:00,
2013-08-06 01:23:00,65.6,45.0,30.12,NNE,13,10.0,13.0,48,0.00,,,0.00,0,weatherlink.com 1.10,2013-08-06 07:23:00,
2013-08-06 01:38:00,64.3,45.0,30.12,North,9,10.0,12.0,49,0.00,,,0.00,0,weatherlink.com 1.10,2013-08-06 07:38:00,
2013-08-06 01:53:00,64.1,45.0,30.12,NE,38,9.0,11.0,51,0.00,,,0.00,0,weatherlink.com 1.10,2013-08-06 07:53:00,
2013-08-06 02:08:00,63.6,45.0,30.13,NNE,22,11.0,14.0,51,0.00,,,0.00,0,weatherlink.com 1.10,2013-08-06 08:08:00,
2013-08-06 02:23:00,62.9,45.0,30.13,NE,42,7.0,12.0,52,0.00,,,0.00,0,weatherlink.com 1.10,2013-08-06 08:23:00,
2013-08-06 02:38:00,62.7,45.0,30.13,NNE,23,7.0,10.0,53,0.00,,,0.00,0,weatherlink.com 1.10,2013-08-06 08:38:00,
2013-08-06 02:53:00,63.2,45.0,30.13,North,5,7.0,10.0,52,0.00,,,0.00,0,weatherlink.com 1.10,2013-08-06 08:53:00,
2013-08-06 03:08:00,62.8,45.0,30.14,NNE,22,5.0,8.0,53,0.00,,,0.00,0,weatherlink.com 1.10,2013-08-06 09:08:00,
2013-08-06 03:23:00,62.0,44.0,30.14,NE,40,5.0,8.0,53,0.00,,,0.00,0,weatherlink.com 1.10,2013-08-06 09:23:00,
2013-08-06 03:38:00,61.1,45.0,30.14,NNE,24,5.0,8.0,55,0.00,,,0.00,0,weatherlink.com 1.10,2013-08-06 09:38:00,
2013-08-06 03:53:00,61.0,45.0,30.14,NNE,17,1.0,5.0,56,0.00,,,0.00,0,weatherlink.com 1.10,2013-08-06 09:53:00,
2013-08-06 04:08:00,60.0,44.0,30.15,NNE,22,3.0,4.0,57,0.00,,,0.00,0,weatherlink.com 1.10,2013-08-06 10:08:00,
2013-08-06 04:23:00,59.1,45.0,30.15,NNE,28,0.0,4.0,59,0.00,,,0.00,0,weatherlink.com 1.10,2013-08-06 10:23:00,
2013-08-06 04:39:00,58.2,45.0,30.16,NNE,28,0.0,3.0,61,0.00,,,0.00,0,weatherlink.com 1.10,2013-08-06 10:39:00,
2013-08-06 04:54:00,57.9,45.0,30.16,NNE,28,0.0,2.0,62,0.00,,,0.00,0,weatherlink.com 1.10,2013-08-06 10:54:00,
2013-08-06 05:09:00,58.0,45.0,30.16,SE,130,1.0,4.0,62,0.00,,,0.00,0,weatherlink.com 1.10,2013-08-06 11:09:00,
2013-08-06 05:24:00,58.0,44.0,30.17,SSE,165,0.0,3.0,61,0.00,,,0.00,0,weatherlink.com 1.10,2013-08-06 11:24:00,
2013-08-06 05:39:00,58.4,44.0,30.17,SSE,165,0.0,2.0,60,0.00,,,0.00,0,weatherlink.com 1.10,2013-08-06 11:39:00,
2013-08-06 05:54:00,58.6,45.0,30.18,SSE,163,2.0,3.0,60,0.00,,,0.00,0,weatherlink.com 1.10,2013-08-06 11:54:00,
2013-08-06 06:09:00,59.2,44.0,30.18,SSE,161,2.0,3.0,58,0.00,,,0.00,0,weatherlink.com 1.10,2013-08-06 12:09:00,
2013-08-06 06:24:00,58.7,44.0,30.18,SSE,163,0.0,4.0,59,0.00,,,0.00,0,weatherlink.com 1.10,2013-08-06 12:24:00,
2013-08-06 06:39:00,58.3,44.0,30.19,SSE,166,0.0,3.0,60,0.00,,,0.00,14,weatherlink.com 1.10,2013-08-06 12:39:00,
2013-08-06 06:54:00,57.8,44.0,30.19,SSE,166,0.0,0.0,60,0.00,,,0.00,23,weatherlink.com 1.10,2013-08-06 12:54:00,
2013-08-06 07:09:00,57.7,44.0,30.19,SSE,166,0.0,0.0,61,0.00,,,0.00,26,weatherlink.com 1.10,2013-08-06 13:09:00,
2013-08-06 07:24:00,57.3,44.0,30.20,SSE,166,0.0,2.0,62,0.00,,,0.00,102,weatherlink.com 1.10,2013-08-06 13:24:00,
2013-08-06 07:39:00,56.9,45.0,30.20,SSE,166,0.0,1.0,64,0.00,,,0.00,158,weatherlink.com 1.10,2013-08-06 13:39:00,
2013-08-06 07:54:00,58.5,46.0,30.20,SSE,166,0.0,1.0,64,0.00,,,0.00,204,weatherlink.com 1.10,2013-08-06 13:54:00,
2013-08-06 08:09:00,59.7,46.0,30.20,South,178,0.0,0.0,60,0.00,,,0.00,229,weatherlink.com 1.10,2013-08-06 14:09:00,
2013-08-06 08:24:00,60.9,46.0,30.21,South,178,0.0,2.0,58,0.00,,,0.00,269,weatherlink.com 1.10,2013-08-06 14:24:00,
2013-08-06 08:39:00,60.5,45.0,30.20,South,178,0.0,1.0,57,0.00,,,0.00,308,weatherlink.com 1.10,2013-08-06 14:39:00,
2013-08-06 08:54:00,60.9,47.0,30.21,South,179,0.0,3.0,60,0.00,,,0.00,348,weatherlink.com 1.10,2013-08-06 14:54:00,
2013-08-06 09:09:00,61.8,46.0,30.21,NNW,334,1.0,1.0,57,0.00,,,0.00,385,weatherlink.com 1.10,2013-08-06 15:09:00,
2013-08-06 09:24:00,61.6,46.0,30.21,SSW,202,0.0,4.0,57,0.00,,,0.00,425,weatherlink.com 1.10,2013-08-06 15:24:00,
2013-08-06 09:39:00,62.0,46.0,30.21,SSW,205,7.0,9.0,56,0.00,,,0.00,468,weatherlink.com 1.10,2013-08-06 15:39:00,
2013-08-06 09:54:00,62.6,46.0,30.20,SSW,198,5.0,10.0,56,0.00,,,0.00,513,weatherlink.com 1.10,2013-08-06 15:54:00,
2013-08-06 10:10:00,64.1,46.0,30.20,SSW,213,6.0,8.0,52,0.00,,,0.00,559,weatherlink.com 1.10,2013-08-06 16:10:00,
2013-08-06 10:25:00,65.4,47.0,30.20,SW,225,4.0,7.0,51,0.00,,,0.00,596,weatherlink.com 1.10,2013-08-06 16:25:00,
2013-08-06 10:40:00,66.9,48.0,30.20,SW,217,4.0,7.0,50,0.00,,,0.00,635,weatherlink.com 1.10,2013-08-06 16:40:00,
2013-08-06 10:55:00,68.6,46.0,30.19,SSW,210,0.0,7.0,44,0.00,,,0.00,666,weatherlink.com 1.10,2013-08-06 16:55:00,
2013-08-06 11:10:00,69.7,45.0,30.19,SW,227,7.0,12.0,41,0.00,,,0.00,698,weatherlink.com 1.10,2013-08-06 17:10:00,
2013-08-06 11:25:00,70.4,46.0,30.18,SW,219,5.0,9.0,42,0.00,,,0.00,735,weatherlink.com 1.10,2013-08-06 17:25:00,
2013-08-06 11:40:00,71.5,46.0,30.18,SW,220,7.0,11.0,40,0.00,,,0.00,758,weatherlink.com 1.10,2013-08-06 17:40:00,
2013-08-06 11:55:00,72.7,46.0,30.18,SSW,211,4.0,7.0,39,0.00,,,0.00,772,weatherlink.com 1.10,2013-08-06 17:55:00,
2013-08-06 12:10:00,73.9,47.0,30.18,WSW,250,6.0,10.0,38,0.00,,,0.00,821,weatherlink.com 1.10,2013-08-06 18:10:00,
2013-08-06 12:25:00,75.7,48.0,30.17,West,274,4.0,8.0,37,0.00,,,0.00,935,weatherlink.com 1.10,2013-08-06 18:25:00,
2013-08-06 12:40:00,75.1,48.0,30.17,WSW,246,8.0,11.0,38,0.00,,,0.00,255,weatherlink.com 1.10,2013-08-06 18:40:00,
2013-08-06 12:55:00,75.2,48.0,30.16,WSW,242,9.0,13.0,38,0.00,,,0.00,937,weatherlink.com 1.10,2013-08-06 18:55:00,
2013-08-06 13:10:00,76.3,47.0,30.16,NW,313,6.0,11.0,36,0.00,,,0.00,918,weatherlink.com 1.10,2013-08-06 19:10:00,
2013-08-06 13:25:00,77.8,47.0,30.15,SW,215,9.0,11.0,34,0.00,,,0.00,991,weatherlink.com 1.10,2013-08-06 19:25:00,
2013-08-06 13:40:00,77.4,47.0,30.14,WSW,250,3.0,7.0,34,0.00,,,0.00,257,weatherlink.com 1.10,2013-08-06 19:40:00,
2013-08-06 13:55:00,78.3,45.0,30.15,NNW,338,0.0,10.0,31,0.00,,,0.00,907,weatherlink.com 1.10,2013-08-06 19:55:00,
2013-08-06 14:10:00,78.1,43.0,30.14,North,360,7.0,12.0,29,0.00,,,0.00,165,weatherlink.com 1.10,2013-08-06 20:10:00,
2013-08-06 14:25:00,78.5,44.0,30.14,West,271,4.0,10.0,29,0.00,,,0.00,276,weatherlink.com 1.10,2013-08-06 20:25:00,
2013-08-06 14:40:00,78.8,45.0,30.14,SSW,202,7.0,12.0,30,0.00,,,0.00,193,weatherlink.com 1.10,2013-08-06 20:40:00,
2013-08-06 14:55:00,79.7,44.0,30.13,South,177,1.0,9.0,28,0.00,,,0.00,984,weatherlink.com 1.10,2013-08-06 20:55:00,
2013-08-06 15:10:00,80.2,44.0,30.13,SW,220,4.0,10.0,28,0.00,,,0.00,824,weatherlink.com 1.10,2013-08-06 21:10:00,
2013-08-06 15:25:00,82.0,45.0,30.12,West,277,0.0,6.0,27,0.00,,,0.00,863,weatherlink.com 1.10,2013-08-06 21:25:00,
2013-08-06 15:40:00,80.7,44.0,30.12,North,5,11.0,18.0,27,0.00,,,0.00,988,weatherlink.com 1.10,2013-08-06 21:40:00,
2013-08-06 15:55:00,81.5,43.0,30.12,North,355,9.0,15.0,26,0.00,,,0.00,896,weatherlink.com 1.10,2013-08-06 21:55:00,
2013-08-06 16:11:00,80.6,43.0,30.11,NNE,17,7.0,17.0,26,0.00,,,0.00,745,weatherlink.com 1.10,2013-08-06 22:11:00,
2013-08-06 16:26:00,80.7,43.0,30.11,NW,320,6.0,14.0,26,0.00,,,0.00,645,weatherlink.com 1.10,2013-08-06 22:26:00,
2013-08-06 16:41:00,80.8,43.0,30.11,North,360,10.0,18.0,26,0.00,,,0.00,149,weatherlink.com 1.10,2013-08-06 22:41:00,
2013-08-06 16:56:00,80.3,43.0,30.11,NNW,333,13.0,14.0,27,0.00,,,0.00,123,weatherlink.com 1.10,2013-08-06 22:56:00,
2013-08-06 17:11:00,81.5,43.0,30.11,NW,312,7.0,10.0,26,0.00,,,0.00,642,weatherlink.com 1.10,2013-08-06 23:11:00,
2013-08-06 17:26:00,80.7,43.0,30.10,West,279,5.0,10.0,26,0.00,,,0.00,116,weatherlink.com 1.10,2013-08-06 23:26:00,
2013-08-06 17:41:00,80.4,42.0,30.10,WSW,253,3.0,7.0,26,0.00,,,0.00,95,weatherlink.com 1.10,2013-08-06 23:41:00,
2013-08-06 17:56:00,80.0,43.0,30.10,WSW,251,5.0,6.0,27,0.00,,,0.00,123,weatherlink.com 1.10,2013-08-06 23:56:00,
2013-08-06 18:11:00,79.9,43.0,30.10,NW,307,4.0,5.0,27,0.00,,,0.00,69,weatherlink.com 1.10,2013-08-07 00:11:00,
2013-08-06 18:26:00,80.5,44.0,30.09,NNW,329,9.0,10.0,28,0.00,,,0.00,90,weatherlink.com 1.10,2013-08-07 00:26:00,
2013-08-06 18:41:00,79.3,44.0,30.09,NNW,341,7.0,12.0,29,0.00,,,0.00,56,weatherlink.com 1.10,2013-08-07 00:41:00,
2013-08-06 18:56:00,79.0,43.0,30.09,NNW,348,10.0,13.0,28,0.00,,,0.00,65,weatherlink.com 1.10,2013-08-07 00:56:00,
2013-08-06 19:11:00,79.7,44.0,30.09,North,355,10.0,11.0,28,0.00,,,0.00,46,weatherlink.com 1.10,2013-08-07 01:11:00,
2013-08-06 19:26:00,78.9,44.0,30.09,North,355,7.0,9.0,29,0.00,,,0.00,46,weatherlink.com 1.10,2013-08-07 01:26:00,
2013-08-06 19:41:00,79.1,43.0,30.09,North,5,9.0,10.0,28,0.00,,,0.00,32,weatherlink.com 1.10,2013-08-07 01:41:00,
2013-08-06 19:56:00,78.9,44.0,30.09,NE,34,4.0,8.0,29,0.00,,,0.00,32,weatherlink.com 1.10,2013-08-07 01:56:00,
2013-08-06 20:11:00,77.5,45.0,30.09,NNE,21,5.0,7.0,32,0.00,,,0.00,35,weatherlink.com 1.10,2013-08-07 02:11:00,
2013-08-06 20:26:00,78.5,43.0,30.08,NE,36,8.0,9.0,28,0.00,,,0.00,30,weatherlink.com 1.10,2013-08-07 02:26:00,
2013-08-06 20:41:00,78.2,42.0,30.08,NE,34,10.0,11.0,28,0.00,,,0.00,11,weatherlink.com 1.10,2013-08-07 02:41:00,
2013-08-06 20:56:00,77.0,46.0,30.09,North,11,6.0,11.0,33,0.00,,,0.00,7,weatherlink.com 1.10,2013-08-07 02:56:00,
2013-08-06 21:11:00,75.5,43.0,30.09,NNE,25,8.0,11.0,31,0.00,,,0.00,0,weatherlink.com 1.10,2013-08-07 03:11:00,
2013-08-06 21:26:00,75.0,42.0,30.09,NE,35,7.0,10.0,31,0.00,,,0.00,0,weatherlink.com 1.10,2013-08-07 03:26:00,
2013-08-06 21:41:00,75.8,42.0,30.10,NE,43,6.0,9.0,30,0.00,,,0.00,0,weatherlink.com 1.10,2013-08-07 03:41:00,
2013-08-06 21:56:00,75.5,43.0,30.10,NNE,26,0.0,3.0,31,0.00,,,0.00,0,weatherlink.com 1.10,2013-08-07 03:56:00,
2013-08-06 22:11:00,74.8,43.0,30.11,NNE,13,3.0,5.0,32,0.00,,,0.00,0,weatherlink.com 1.10,2013-08-07 04:11:00,
2013-08-06 22:26:00,73.6,43.0,30.11,NNE,24,4.0,8.0,34,0.00,,,0.00,0,weatherlink.com 1.10,2013-08-07 04:26:00,
2013-08-06 22:41:00,72.1,43.0,30.11,NE,51,8.0,10.0,35,0.00,,,0.00,0,weatherlink.com 1.10,2013-08-07 04:41:00,
2013-08-06 22:56:00,72.0,44.0,30.11,NNE,30,10.0,13.0,36,0.00,,,0.00,0,weatherlink.com 1.10,2013-08-07 04:56:00,
2013-08-06 23:11:00,71.9,43.0,30.11,NE,41,10.0,13.0,36,0.00,,,0.00,0,weatherlink.com 1.10,2013-08-07 05:11:00,
2013-08-06 23:26:00,71.4,43.0,30.11,NNE,28,7.0,10.0,36,0.00,,,0.00,0,weatherlink.com 1.10,2013-08-07 05:26:00,
2013-08-06 23:41:00,70.2,44.0,30.12,NNE,28,9.0,11.0,39,0.00,,,0.00,0,weatherlink.com 1.10,2013-08-07 05:41:00,
2013-08-06 23:56:00,69.9,44.0,30.12,NNE,19,8.0,11.0,39,0.00,,,0.00,0,weatherlink.com 1.10,2013-08-07 05:56:00,